sensor_id;sensor_type;location;lat;lon;timestamp;temperature;humidity
33414;DHT22;60055;41.884;12.534;2022-07-30T00:01:58;28.90;92.60
33414;DHT22;60055;41.884;12.534;2022-07-30T00:04:23;28.90;92.60
33414;DHT22;60055;41.884;12.534;2022-07-30T00:06:49;28.90;92.60
33414;DHT22;60055;41.884;12.534;2022-07-30T00:09:15;29.00;92.60
33414;DHT22;60055;41.884;12.534;2022-07-30T00:11:41;28.90;92.60
33414;DHT22;60055;41.884;12.534;2022-07-30T00:14:07;28.90;92.70
33414;DHT22;60055;41.884;12.534;2022-07-30T00:16:32;28.90;92.70
33414;DHT22;60055;41.884;12.534;2022-07-30T00:18:58;28.90;92.80
33414;DHT22;60055;41.884;12.534;2022-07-30T00:21:24;28.80;92.90
33414;DHT22;60055;41.884;12.534;2022-07-30T00:23:49;28.80;93.30
33414;DHT22;60055;41.884;12.534;2022-07-30T00:26:15;28.80;93.00
33414;DHT22;60055;41.884;12.534;2022-07-30T00:28:41;28.80;93.10
33414;DHT22;60055;41.884;12.534;2022-07-30T00:31:06;28.80;93.10
33414;DHT22;60055;41.884;12.534;2022-07-30T00:33:32;28.80;93.20
33414;DHT22;60055;41.884;12.534;2022-07-30T00:35:58;28.80;93.20
33414;DHT22;60055;41.884;12.534;2022-07-30T00:38:23;28.80;93.20
33414;DHT22;60055;41.884;12.534;2022-07-30T00:40:49;28.80;93.20
33414;DHT22;60055;41.884;12.534;2022-07-30T00:43:16;28.80;93.20
33414;DHT22;60055;41.884;12.534;2022-07-30T00:45:45;28.90;93.30
33414;DHT22;60055;41.884;12.534;2022-07-30T00:48:12;28.80;93.30
33414;DHT22;60055;41.884;12.534;2022-07-30T00:50:39;28.80;93.50
33414;DHT22;60055;41.884;12.534;2022-07-30T00:53:05;28.70;93.70
33414;DHT22;60055;41.884;12.534;2022-07-30T00:55:31;28.70;93.70
33414;DHT22;60055;41.884;12.534;2022-07-30T00:57:57;28.70;93.80
33414;DHT22;60055;41.884;12.534;2022-07-30T01:00:23;28.60;93.80
33414;DHT22;60055;41.884;12.534;2022-07-30T01:02:49;28.70;93.80
33414;DHT22;60055;41.884;12.534;2022-07-30T01:05:15;28.70;93.70
33414;DHT22;60055;41.884;12.534;2022-07-30T01:07:41;28.70;93.80
33414;DHT22;60055;41.884;12.534;2022-07-30T01:10:09;28.70;93.80
33414;DHT22;60055;41.884;12.534;2022-07-30T01:12:36;28.70;93.90
33414;DHT22;60055;41.884;12.534;2022-07-30T01:15:05;28.70;93.80
33414;DHT22;60055;41.884;12.534;2022-07-30T01:17:33;28.70;93.70
33414;DHT22;60055;41.884;12.534;2022-07-30T01:20:02;28.80;93.80
33414;DHT22;60055;41.884;12.534;2022-07-30T01:22:54;28.80;93.70
33414;DHT22;60055;41.884;12.534;2022-07-30T01:25:47;28.80;93.80
33414;DHT22;60055;41.884;12.534;2022-07-30T01:28:20;28.70;93.80
33414;DHT22;60055;41.884;12.534;2022-07-30T01:30:47;28.70;94.10
33414;DHT22;60055;41.884;12.534;2022-07-30T01:33:14;28.70;94.10
33414;DHT22;60055;41.884;12.534;2022-07-30T01:35:47;28.70;93.90
33414;DHT22;60055;41.884;12.534;2022-07-30T01:38:16;28.70;93.90
33414;DHT22;60055;41.884;12.534;2022-07-30T01:40:44;28.70;93.90
33414;DHT22;60055;41.884;12.534;2022-07-30T01:43:11;28.60;93.90
33414;DHT22;60055;41.884;12.534;2022-07-30T01:45:38;28.60;94.00
33414;DHT22;60055;41.884;12.534;2022-07-30T01:48:06;28.70;94.00
33414;DHT22;60055;41.884;12.534;2022-07-30T01:50:33;28.70;93.90
33414;DHT22;60055;41.884;12.534;2022-07-30T01:53:00;28.70;93.90
33414;DHT22;60055;41.884;12.534;2022-07-30T01:55:34;28.70;93.90
33414;DHT22;60055;41.884;12.534;2022-07-30T01:58:03;28.70;94.00
33414;DHT22;60055;41.884;12.534;2022-07-30T02:00:32;28.60;94.10
33414;DHT22;60055;41.884;12.534;2022-07-30T02:02:59;28.60;94.10
33414;DHT22;60055;41.884;12.534;2022-07-30T02:05:27;28.60;94.20
33414;DHT22;60055;41.884;12.534;2022-07-30T02:08:00;28.40;94.30
33414;DHT22;60055;41.884;12.534;2022-07-30T02:13:02;28.30;94.60
33414;DHT22;60055;41.884;12.534;2022-07-30T02:15:40;28.10;94.80
33414;DHT22;60055;41.884;12.534;2022-07-30T02:20:47;28.30;94.60
33414;DHT22;60055;41.884;12.534;2022-07-30T02:23:15;28.30;94.60
33414;DHT22;60055;41.884;12.534;2022-07-30T02:25:48;28.30;94.50
33414;DHT22;60055;41.884;12.534;2022-07-30T02:28:16;28.20;94.60
33414;DHT22;60055;41.884;12.534;2022-07-30T02:30:54;28.20;94.70
33414;DHT22;60055;41.884;12.534;2022-07-30T02:33:25;27.90;94.70
33414;DHT22;60055;41.884;12.534;2022-07-30T02:35:53;27.60;94.90
33414;DHT22;60055;41.884;12.534;2022-07-30T02:38:21;27.50;95.00
33414;DHT22;60055;41.884;12.534;2022-07-30T02:40:49;27.30;94.80
33414;DHT22;60055;41.884;12.534;2022-07-30T02:43:17;27.50;94.50
33414;DHT22;60055;41.884;12.534;2022-07-30T02:45:46;27.50;94.40
33414;DHT22;60055;41.884;12.534;2022-07-30T02:48:13;27.60;94.20
33414;DHT22;60055;41.884;12.534;2022-07-30T02:50:40;27.40;94.40
33414;DHT22;60055;41.884;12.534;2022-07-30T02:53:08;27.30;94.50
33414;DHT22;60055;41.884;12.534;2022-07-30T02:55:35;27.40;94.30
33414;DHT22;60055;41.884;12.534;2022-07-30T02:58:03;27.40;94.30
33414;DHT22;60055;41.884;12.534;2022-07-30T03:00:30;27.40;94.20
33414;DHT22;60055;41.884;12.534;2022-07-30T03:02:56;27.40;94.00
33414;DHT22;60055;41.884;12.534;2022-07-30T03:05:23;27.20;94.20
33414;DHT22;60055;41.884;12.534;2022-07-30T03:07:51;27.20;94.40
33414;DHT22;60055;41.884;12.534;2022-07-30T03:10:18;27.20;94.20
33414;DHT22;60055;41.884;12.534;2022-07-30T03:12:44;27.30;94.10
33414;DHT22;60055;41.884;12.534;2022-07-30T03:15:11;27.50;94.00
33414;DHT22;60055;41.884;12.534;2022-07-30T03:17:40;27.50;93.90
33414;DHT22;60055;41.884;12.534;2022-07-30T03:20:09;27.50;93.90
33414;DHT22;60055;41.884;12.534;2022-07-30T03:22:40;27.40;94.10
33414;DHT22;60055;41.884;12.534;2022-07-30T03:25:08;27.40;94.10
33414;DHT22;60055;41.884;12.534;2022-07-30T03:27:36;27.60;94.00
33414;DHT22;60055;41.884;12.534;2022-07-30T03:30:03;27.70;93.80
33414;DHT22;60055;41.884;12.534;2022-07-30T03:32:29;27.60;94.00
33414;DHT22;60055;41.884;12.534;2022-07-30T03:34:56;27.60;94.00
33414;DHT22;60055;41.884;12.534;2022-07-30T03:37:24;27.50;94.10
33414;DHT22;60055;41.884;12.534;2022-07-30T03:39:51;27.40;94.10
33414;DHT22;60055;41.884;12.534;2022-07-30T03:42:18;27.40;94.20
33414;DHT22;60055;41.884;12.534;2022-07-30T03:44:45;27.40;94.20
33414;DHT22;60055;41.884;12.534;2022-07-30T03:47:12;27.50;94.00
33414;DHT22;60055;41.884;12.534;2022-07-30T03:49:40;27.60;94.10
33414;DHT22;60055;41.884;12.534;2022-07-30T03:52:06;27.40;94.30
33414;DHT22;60055;41.884;12.534;2022-07-30T03:54:33;27.40;94.30
33414;DHT22;60055;41.884;12.534;2022-07-30T03:57:00;27.40;94.50
33414;DHT22;60055;41.884;12.534;2022-07-30T03:59:27;27.50;94.20
33414;DHT22;60055;41.884;12.534;2022-07-30T04:01:52;27.40;94.30
33414;DHT22;60055;41.884;12.534;2022-07-30T04:04:18;27.40;94.50
33414;DHT22;60055;41.884;12.534;2022-07-30T04:06:44;27.30;94.50
33414;DHT22;60055;41.884;12.534;2022-07-30T04:09:11;27.60;94.20
33414;DHT22;60055;41.884;12.534;2022-07-30T04:11:37;27.70;94.00
33414;DHT22;60055;41.884;12.534;2022-07-30T04:14:03;27.80;93.80
33414;DHT22;60055;41.884;12.534;2022-07-30T04:19:17;27.90;93.70
33414;DHT22;60055;41.884;12.534;2022-07-30T04:21:45;27.90;93.70
33414;DHT22;60055;41.884;12.534;2022-07-30T04:24:13;28.00;93.70
33414;DHT22;60055;41.884;12.534;2022-07-30T04:26:40;28.00;93.80
33414;DHT22;60055;41.884;12.534;2022-07-30T04:29:08;27.90;93.90
33414;DHT22;60055;41.884;12.534;2022-07-30T04:31:34;27.80;93.90
33414;DHT22;60055;41.884;12.534;2022-07-30T04:34:04;27.70;94.20
33414;DHT22;60055;41.884;12.534;2022-07-30T04:36:32;27.70;94.30
33414;DHT22;60055;41.884;12.534;2022-07-30T04:38:58;27.70;94.20
33414;DHT22;60055;41.884;12.534;2022-07-30T04:41:28;27.80;94.00
33414;DHT22;60055;41.884;12.534;2022-07-30T04:43:54;27.60;94.10
33414;DHT22;60055;41.884;12.534;2022-07-30T04:46:19;27.70;94.10
33414;DHT22;60055;41.884;12.534;2022-07-30T04:48:45;27.80;93.90
33414;DHT22;60055;41.884;12.534;2022-07-30T04:51:19;27.80;93.80
33414;DHT22;60055;41.884;12.534;2022-07-30T04:53:46;27.80;93.70
33414;DHT22;60055;41.884;12.534;2022-07-30T04:56:13;27.90;93.60
33414;DHT22;60055;41.884;12.534;2022-07-30T04:58:39;28.00;93.50
33414;DHT22;60055;41.884;12.534;2022-07-30T05:01:06;28.00;93.50
33414;DHT22;60055;41.884;12.534;2022-07-30T05:03:34;28.00;93.60
33414;DHT22;60055;41.884;12.534;2022-07-30T05:06:00;28.10;93.80
33414;DHT22;60055;41.884;12.534;2022-07-30T05:08:27;28.00;94.20
33414;DHT22;60055;41.884;12.534;2022-07-30T05:10:53;28.00;94.40
33414;DHT22;60055;41.884;12.534;2022-07-30T05:13:19;28.00;94.40
33414;DHT22;60055;41.884;12.534;2022-07-30T05:15:44;28.10;94.40
33414;DHT22;60055;41.884;12.534;2022-07-30T05:18:11;28.10;94.70
33414;DHT22;60055;41.884;12.534;2022-07-30T05:20:37;28.00;95.00
33414;DHT22;60055;41.884;12.534;2022-07-30T05:23:03;27.90;95.40
33414;DHT22;60055;41.884;12.534;2022-07-30T05:25:29;27.90;95.40
33414;DHT22;60055;41.884;12.534;2022-07-30T05:27:55;28.00;95.30
33414;DHT22;60055;41.884;12.534;2022-07-30T05:30:24;28.00;95.50
33414;DHT22;60055;41.884;12.534;2022-07-30T05:32:49;28.00;95.60
33414;DHT22;60055;41.884;12.534;2022-07-30T05:35:15;28.00;95.60
33414;DHT22;60055;41.884;12.534;2022-07-30T05:37:41;28.10;95.40
33414;DHT22;60055;41.884;12.534;2022-07-30T05:40:07;28.10;95.40
33414;DHT22;60055;41.884;12.534;2022-07-30T05:42:33;28.20;95.40
33414;DHT22;60055;41.884;12.534;2022-07-30T05:44:59;28.20;95.50
33414;DHT22;60055;41.884;12.534;2022-07-30T05:47:25;28.50;95.60
33414;DHT22;60055;41.884;12.534;2022-07-30T05:49:52;29.00;94.80
33414;DHT22;60055;41.884;12.534;2022-07-30T05:52:17;29.60;94.20
33414;DHT22;60055;41.884;12.534;2022-07-30T05:54:43;29.50;93.90
33414;DHT22;60055;41.884;12.534;2022-07-30T05:57:09;29.20;94.30
33414;DHT22;60055;41.884;12.534;2022-07-30T05:59:34;29.10;94.60
33414;DHT22;60055;41.884;12.534;2022-07-30T06:02:00;29.20;94.60
33414;DHT22;60055;41.884;12.534;2022-07-30T06:04:27;29.40;94.60
33414;DHT22;60055;41.884;12.534;2022-07-30T06:06:53;29.50;94.00
33414;DHT22;60055;41.884;12.534;2022-07-30T06:09:19;29.60;93.60
33414;DHT22;60055;41.884;12.534;2022-07-30T06:11:45;29.40;93.40
33414;DHT22;60055;41.884;12.534;2022-07-30T06:14:11;29.30;93.70
33414;DHT22;60055;41.884;12.534;2022-07-30T06:16:37;29.50;93.60
33414;DHT22;60055;41.884;12.534;2022-07-30T06:19:02;29.60;93.80
33414;DHT22;60055;41.884;12.534;2022-07-30T06:21:28;29.60;93.30
33414;DHT22;60055;41.884;12.534;2022-07-30T06:23:54;29.30;93.80
33414;DHT22;60055;41.884;12.534;2022-07-30T06:26:19;29.70;93.50
33414;DHT22;60055;41.884;12.534;2022-07-30T06:28:45;29.30;93.60
33414;DHT22;60055;41.884;12.534;2022-07-30T06:31:11;29.20;93.80
33414;DHT22;60055;41.884;12.534;2022-07-30T06:33:36;28.90;94.00
33414;DHT22;60055;41.884;12.534;2022-07-30T06:36:02;28.30;95.10
33414;DHT22;60055;41.884;12.534;2022-07-30T06:38:28;28.10;95.50
33414;DHT22;60055;41.884;12.534;2022-07-30T06:40:54;28.00;95.50
33414;DHT22;60055;41.884;12.534;2022-07-30T06:43:19;28.20;95.40
33414;DHT22;60055;41.884;12.534;2022-07-30T06:45:45;28.30;95.50
33414;DHT22;60055;41.884;12.534;2022-07-30T06:48:11;28.20;95.70
33414;DHT22;60055;41.884;12.534;2022-07-30T06:50:36;28.20;96.10
33414;DHT22;60055;41.884;12.534;2022-07-30T06:53:02;28.20;95.80
33414;DHT22;60055;41.884;12.534;2022-07-30T06:55:28;28.20;95.80
33414;DHT22;60055;41.884;12.534;2022-07-30T06:57:53;28.00;96.20
33414;DHT22;60055;41.884;12.534;2022-07-30T07:00:19;28.00;96.40
33414;DHT22;60055;41.884;12.534;2022-07-30T07:02:45;28.10;95.90
33414;DHT22;60055;41.884;12.534;2022-07-30T07:05:11;28.30;95.50
33414;DHT22;60055;41.884;12.534;2022-07-30T07:07:37;28.30;95.40
33414;DHT22;60055;41.884;12.534;2022-07-30T07:10:05;28.50;95.10
33414;DHT22;60055;41.884;12.534;2022-07-30T07:12:31;28.90;94.70
33414;DHT22;60055;41.884;12.534;2022-07-30T07:14:56;29.60;93.90
33414;DHT22;60055;41.884;12.534;2022-07-30T07:17:22;29.90;93.30
33414;DHT22;60055;41.884;12.534;2022-07-30T07:19:48;29.80;93.10
33414;DHT22;60055;41.884;12.534;2022-07-30T07:22:13;30.00;93.00
33414;DHT22;60055;41.884;12.534;2022-07-30T07:24:39;30.40;92.50
33414;DHT22;60055;41.884;12.534;2022-07-30T07:27:06;30.50;92.20
33414;DHT22;60055;41.884;12.534;2022-07-30T07:29:32;30.70;92.10
33414;DHT22;60055;41.884;12.534;2022-07-30T07:31:58;30.90;91.90
33414;DHT22;60055;41.884;12.534;2022-07-30T07:34:23;31.20;91.80
33414;DHT22;60055;41.884;12.534;2022-07-30T07:36:49;31.60;91.40
33414;DHT22;60055;41.884;12.534;2022-07-30T07:39:14;31.60;91.50
33414;DHT22;60055;41.884;12.534;2022-07-30T07:41:40;31.50;91.80
33414;DHT22;60055;41.884;12.534;2022-07-30T07:44:06;31.60;91.60
33414;DHT22;60055;41.884;12.534;2022-07-30T07:46:32;31.80;91.20
33414;DHT22;60055;41.884;12.534;2022-07-30T07:48:58;31.60;91.10
33414;DHT22;60055;41.884;12.534;2022-07-30T07:51:23;31.50;91.50
33414;DHT22;60055;41.884;12.534;2022-07-30T07:53:49;32.00;90.90
33414;DHT22;60055;41.884;12.534;2022-07-30T07:56:14;32.80;90.20
33414;DHT22;60055;41.884;12.534;2022-07-30T07:58:40;33.30;88.60
33414;DHT22;60055;41.884;12.534;2022-07-30T08:01:06;33.30;87.60
33414;DHT22;60055;41.884;12.534;2022-07-30T08:03:32;33.00;88.30
33414;DHT22;60055;41.884;12.534;2022-07-30T08:05:57;32.50;88.70
33414;DHT22;60055;41.884;12.534;2022-07-30T08:08:23;32.40;89.70
33414;DHT22;60055;41.884;12.534;2022-07-30T08:10:49;32.60;88.80
33414;DHT22;60055;41.884;12.534;2022-07-30T08:13:15;32.90;88.80
33414;DHT22;60055;41.884;12.534;2022-07-30T08:15:41;33.30;88.70
33414;DHT22;60055;41.884;12.534;2022-07-30T08:18:06;33.70;86.90
33414;DHT22;60055;41.884;12.534;2022-07-30T08:20:33;33.70;86.40
33414;DHT22;60055;41.884;12.534;2022-07-30T08:23:00;33.10;87.10
33414;DHT22;60055;41.884;12.534;2022-07-30T08:25:26;32.40;88.80
33414;DHT22;60055;41.884;12.534;2022-07-30T08:27:52;32.40;89.40
33414;DHT22;60055;41.884;12.534;2022-07-30T08:30:19;32.00;89.90
33414;DHT22;60055;41.884;12.534;2022-07-30T08:32:45;32.60;88.70
33414;DHT22;60055;41.884;12.534;2022-07-30T08:35:10;32.90;87.10
33414;DHT22;60055;41.884;12.534;2022-07-30T08:37:37;33.00;86.80
33414;DHT22;60055;41.884;12.534;2022-07-30T08:40:08;33.00;86.60
33414;DHT22;60055;41.884;12.534;2022-07-30T08:42:34;33.20;86.50
33414;DHT22;60055;41.884;12.534;2022-07-30T08:45:00;33.00;86.50
33414;DHT22;60055;41.884;12.534;2022-07-30T08:47:35;33.20;85.90
33414;DHT22;60055;41.884;12.534;2022-07-30T08:50:04;33.20;85.40
33414;DHT22;60055;41.884;12.534;2022-07-30T08:52:35;33.00;86.00
33414;DHT22;60055;41.884;12.534;2022-07-30T08:55:01;32.40;87.10
33414;DHT22;60055;41.884;12.534;2022-07-30T08:57:29;32.40;87.30
33414;DHT22;60055;41.884;12.534;2022-07-30T08:59:58;31.90;88.60
33414;DHT22;60055;41.884;12.534;2022-07-30T09:02:24;32.20;88.10
33414;DHT22;60055;41.884;12.534;2022-07-30T09:04:50;32.80;87.30
33414;DHT22;60055;41.884;12.534;2022-07-30T09:07:16;33.20;86.10
33414;DHT22;60055;41.884;12.534;2022-07-30T09:09:42;33.30;85.80
33414;DHT22;60055;41.884;12.534;2022-07-30T09:12:42;33.20;85.40
33414;DHT22;60055;41.884;12.534;2022-07-30T09:15:12;33.50;85.20
33414;DHT22;60055;41.884;12.534;2022-07-30T09:17:48;33.50;84.50
33414;DHT22;60055;41.884;12.534;2022-07-30T09:20:14;33.00;85.10
33414;DHT22;60055;41.884;12.534;2022-07-30T09:22:45;32.80;85.30
33414;DHT22;60055;41.884;12.534;2022-07-30T09:25:11;32.80;85.10
33414;DHT22;60055;41.884;12.534;2022-07-30T09:30:10;32.00;84.90
33414;DHT22;60055;41.884;12.534;2022-07-30T09:32:50;31.90;85.40
33414;DHT22;60055;41.884;12.534;2022-07-30T09:35:16;31.80;86.40
33414;DHT22;60055;41.884;12.534;2022-07-30T09:37:43;32.40;85.70
33414;DHT22;60055;41.884;12.534;2022-07-30T09:40:16;33.70;83.30
33414;DHT22;60055;41.884;12.534;2022-07-30T09:42:43;34.10;79.50
33414;DHT22;60055;41.884;12.534;2022-07-30T09:45:13;34.30;77.50
33414;DHT22;60055;41.884;12.534;2022-07-30T09:47:41;34.60;77.60
33414;DHT22;60055;41.884;12.534;2022-07-30T09:50:12;35.50;73.80
33414;DHT22;60055;41.884;12.534;2022-07-30T09:52:40;36.10;72.30
33414;DHT22;60055;41.884;12.534;2022-07-30T09:55:07;36.50;71.00
33414;DHT22;60055;41.884;12.534;2022-07-30T09:57:33;36.70;70.10
33414;DHT22;60055;41.884;12.534;2022-07-30T10:00:20;35.70;71.20
33414;DHT22;60055;41.884;12.534;2022-07-30T10:02:46;36.50;70.60
33414;DHT22;60055;41.884;12.534;2022-07-30T10:05:14;36.30;68.80
33414;DHT22;60055;41.884;12.534;2022-07-30T10:07:47;35.90;69.50
33414;DHT22;60055;41.884;12.534;2022-07-30T10:10:14;36.70;67.30
33414;DHT22;60055;41.884;12.534;2022-07-30T10:12:40;36.90;65.80
33414;DHT22;60055;41.884;12.534;2022-07-30T10:15:07;37.00;65.30
33414;DHT22;60055;41.884;12.534;2022-07-30T10:17:33;36.90;64.80
33414;DHT22;60055;41.884;12.534;2022-07-30T10:20:01;36.50;65.50
33414;DHT22;60055;41.884;12.534;2022-07-30T10:22:27;35.00;67.40
33414;DHT22;60055;41.884;12.534;2022-07-30T10:24:53;34.50;68.70
33414;DHT22;60055;41.884;12.534;2022-07-30T10:27:19;35.00;68.10
33414;DHT22;60055;41.884;12.534;2022-07-30T10:29:45;35.80;66.10
33414;DHT22;60055;41.884;12.534;2022-07-30T10:32:12;35.90;64.80
33414;DHT22;60055;41.884;12.534;2022-07-30T10:34:38;34.70;65.70
33414;DHT22;60055;41.884;12.534;2022-07-30T10:37:06;35.10;65.30
33414;DHT22;60055;41.884;12.534;2022-07-30T10:39:38;36.10;63.20
33414;DHT22;60055;41.884;12.534;2022-07-30T10:42:22;36.30;62.70
33414;DHT22;60055;41.884;12.534;2022-07-30T10:47:37;36.00;63.80
33414;DHT22;60055;41.884;12.534;2022-07-30T10:50:12;34.30;65.80
33414;DHT22;60055;41.884;12.534;2022-07-30T10:52:52;35.40;66.40
33414;DHT22;60055;41.884;12.534;2022-07-30T10:55:23;35.50;66.30
33414;DHT22;60055;41.884;12.534;2022-07-30T10:58:09;35.00;66.70
33414;DHT22;60055;41.884;12.534;2022-07-30T11:03:24;35.00;69.00
33414;DHT22;60055;41.884;12.534;2022-07-30T11:08:44;34.80;70.20
33414;DHT22;60055;41.884;12.534;2022-07-30T11:13:56;33.60;73.00
33414;DHT22;60055;41.884;12.534;2022-07-30T11:19:12;33.90;73.20
33414;DHT22;60055;41.884;12.534;2022-07-30T11:21:43;33.80;73.90
33414;DHT22;60055;41.884;12.534;2022-07-30T11:24:43;34.10;73.50
33414;DHT22;60055;41.884;12.534;2022-07-30T11:27:42;34.00;73.70
33414;DHT22;60055;41.884;12.534;2022-07-30T11:35:18;35.00;70.70
33414;DHT22;60055;41.884;12.534;2022-07-30T11:43:19;33.60;73.10
33414;DHT22;60055;41.884;12.534;2022-07-30T11:45:46;33.50;73.80
33414;DHT22;60055;41.884;12.534;2022-07-30T11:48:15;34.10;72.70
33414;DHT22;60055;41.884;12.534;2022-07-30T11:50:42;33.50;73.50
33414;DHT22;60055;41.884;12.534;2022-07-30T11:53:19;33.70;72.50
33414;DHT22;60055;41.884;12.534;2022-07-30T11:55:52;34.50;70.70
33414;DHT22;60055;41.884;12.534;2022-07-30T12:00:57;34.80;71.40
33414;DHT22;60055;41.884;12.534;2022-07-30T12:03:27;34.90;70.40
33414;DHT22;60055;41.884;12.534;2022-07-30T12:05:53;35.00;69.90
33414;DHT22;60055;41.884;12.534;2022-07-30T12:08:20;35.00;70.30
33414;DHT22;60055;41.884;12.534;2022-07-30T12:11:00;34.90;70.70
33414;DHT22;60055;41.884;12.534;2022-07-30T12:13:26;34.80;69.80
33414;DHT22;60055;41.884;12.534;2022-07-30T12:15:52;35.20;69.20
33414;DHT22;60055;41.884;12.534;2022-07-30T12:18:29;35.40;69.40
33414;DHT22;60055;41.884;12.534;2022-07-30T12:20:59;35.40;69.80
33414;DHT22;60055;41.884;12.534;2022-07-30T12:23:27;35.50;69.80
33414;DHT22;60055;41.884;12.534;2022-07-30T12:25:54;35.50;69.90
33414;DHT22;60055;41.884;12.534;2022-07-30T12:30:47;35.20;71.20
33414;DHT22;60055;41.884;12.534;2022-07-30T12:33:12;34.90;71.90
33414;DHT22;60055;41.884;12.534;2022-07-30T12:35:49;35.50;70.70
33414;DHT22;60055;41.884;12.534;2022-07-30T12:38:16;35.70;69.20
33414;DHT22;60055;41.884;12.534;2022-07-30T12:41:01;35.80;68.60
33414;DHT22;60055;41.884;12.534;2022-07-30T12:46:16;35.20;70.20
33414;DHT22;60055;41.884;12.534;2022-07-30T12:49:01;35.70;69.60
33414;DHT22;60055;41.884;12.534;2022-07-30T12:51:35;35.80;69.70
33414;DHT22;60055;41.884;12.534;2022-07-30T12:54:16;35.40;71.00
33414;DHT22;60055;41.884;12.534;2022-07-30T12:57:02;35.60;71.20
33414;DHT22;60055;41.884;12.534;2022-07-30T12:59:28;35.00;71.90
33414;DHT22;60055;41.884;12.534;2022-07-30T13:01:55;35.10;71.30
33414;DHT22;60055;41.884;12.534;2022-07-30T13:04:22;35.70;69.30
33414;DHT22;60055;41.884;12.534;2022-07-30T13:07:08;36.10;68.20
33414;DHT22;60055;41.884;12.534;2022-07-30T13:09:38;35.80;68.90
33414;DHT22;60055;41.884;12.534;2022-07-30T13:12:11;35.70;69.20
33414;DHT22;60055;41.884;12.534;2022-07-30T13:14:37;35.70;68.50
33414;DHT22;60055;41.884;12.534;2022-07-30T13:17:02;35.90;68.10
33414;DHT22;60055;41.884;12.534;2022-07-30T13:19:28;35.60;69.00
33414;DHT22;60055;41.884;12.534;2022-07-30T13:21:54;35.80;68.00
33414;DHT22;60055;41.884;12.534;2022-07-30T13:24:20;35.20;68.70
33414;DHT22;60055;41.884;12.534;2022-07-30T13:26:46;35.30;68.60
33414;DHT22;60055;41.884;12.534;2022-07-30T13:29:12;35.60;68.20
33414;DHT22;60055;41.884;12.534;2022-07-30T13:31:39;35.60;68.50
33414;DHT22;60055;41.884;12.534;2022-07-30T13:34:08;35.80;67.50
33414;DHT22;60055;41.884;12.534;2022-07-30T13:36:33;35.70;68.00
33414;DHT22;60055;41.884;12.534;2022-07-30T13:38:59;36.00;67.40
33414;DHT22;60055;41.884;12.534;2022-07-30T13:41:25;36.10;67.30
33414;DHT22;60055;41.884;12.534;2022-07-30T13:43:50;36.20;67.60
33414;DHT22;60055;41.884;12.534;2022-07-30T13:46:16;35.60;67.70
33414;DHT22;60055;41.884;12.534;2022-07-30T13:48:42;34.60;69.20
33414;DHT22;60055;41.884;12.534;2022-07-30T13:51:08;35.00;69.30
33414;DHT22;60055;41.884;12.534;2022-07-30T13:53:34;35.50;69.10
33414;DHT22;60055;41.884;12.534;2022-07-30T13:55:59;34.50;70.80
33414;DHT22;60055;41.884;12.534;2022-07-30T13:58:25;34.90;70.50
33414;DHT22;60055;41.884;12.534;2022-07-30T14:00:51;34.90;70.10
33414;DHT22;60055;41.884;12.534;2022-07-30T14:03:17;34.50;70.90
33414;DHT22;60055;41.884;12.534;2022-07-30T14:05:44;35.30;69.70
33414;DHT22;60055;41.884;12.534;2022-07-30T14:08:10;35.50;69.30
33414;DHT22;60055;41.884;12.534;2022-07-30T14:10:36;34.80;71.30
33414;DHT22;60055;41.884;12.534;2022-07-30T14:13:05;34.80;71.90
33414;DHT22;60055;41.884;12.534;2022-07-30T14:15:31;34.80;71.50
33414;DHT22;60055;41.884;12.534;2022-07-30T14:17:57;35.20;69.60
33414;DHT22;60055;41.884;12.534;2022-07-30T14:20:23;35.10;70.70
33414;DHT22;60055;41.884;12.534;2022-07-30T14:22:49;35.40;70.10
33414;DHT22;60055;41.884;12.534;2022-07-30T14:25:15;36.00;69.60
33414;DHT22;60055;41.884;12.534;2022-07-30T14:27:41;36.00;69.00
33414;DHT22;60055;41.884;12.534;2022-07-30T14:30:08;35.30;71.60
33414;DHT22;60055;41.884;12.534;2022-07-30T14:32:37;35.10;71.50
33414;DHT22;60055;41.884;12.534;2022-07-30T14:35:10;35.10;72.90
33414;DHT22;60055;41.884;12.534;2022-07-30T14:37:36;34.40;74.30
33414;DHT22;60055;41.884;12.534;2022-07-30T14:40:05;34.60;73.50
33414;DHT22;60055;41.884;12.534;2022-07-30T14:42:31;35.20;72.20
33414;DHT22;60055;41.884;12.534;2022-07-30T14:44:57;35.30;72.20
33414;DHT22;60055;41.884;12.534;2022-07-30T14:47:22;35.30;71.70
33414;DHT22;60055;41.884;12.534;2022-07-30T14:49:48;35.70;71.50
33414;DHT22;60055;41.884;12.534;2022-07-30T14:52:14;35.80;71.70
33414;DHT22;60055;41.884;12.534;2022-07-30T14:54:40;35.40;71.40
33414;DHT22;60055;41.884;12.534;2022-07-30T14:57:06;34.90;73.50
33414;DHT22;60055;41.884;12.534;2022-07-30T14:59:34;35.40;71.50
33414;DHT22;60055;41.884;12.534;2022-07-30T15:02:00;35.00;71.70
33414;DHT22;60055;41.884;12.534;2022-07-30T15:04:26;34.40;72.00
33414;DHT22;60055;41.884;12.534;2022-07-30T15:06:52;34.20;73.60
33414;DHT22;60055;41.884;12.534;2022-07-30T15:09:17;34.40;73.30
33414;DHT22;60055;41.884;12.534;2022-07-30T15:11:44;35.10;71.80
33414;DHT22;60055;41.884;12.534;2022-07-30T15:14:10;35.10;71.90
33414;DHT22;60055;41.884;12.534;2022-07-30T15:16:37;34.90;72.80
33414;DHT22;60055;41.884;12.534;2022-07-30T15:19:02;35.10;72.70
33414;DHT22;60055;41.884;12.534;2022-07-30T15:21:28;34.40;74.30
33414;DHT22;60055;41.884;12.534;2022-07-30T15:23:54;34.70;73.50
33414;DHT22;60055;41.884;12.534;2022-07-30T15:26:19;34.20;72.10
33414;DHT22;60055;41.884;12.534;2022-07-30T15:28:45;33.90;73.30
33414;DHT22;60055;41.884;12.534;2022-07-30T15:31:11;34.10;72.90
33414;DHT22;60055;41.884;12.534;2022-07-30T15:33:36;33.70;73.20
33414;DHT22;60055;41.884;12.534;2022-07-30T15:36:07;33.40;75.30
33414;DHT22;60055;41.884;12.534;2022-07-30T15:38:34;33.30;73.70
33414;DHT22;60055;41.884;12.534;2022-07-30T15:41:00;32.70;75.50
33414;DHT22;60055;41.884;12.534;2022-07-30T15:43:26;32.90;76.10
33414;DHT22;60055;41.884;12.534;2022-07-30T15:45:51;33.20;76.80
33414;DHT22;60055;41.884;12.534;2022-07-30T15:48:17;33.50;77.40
33414;DHT22;60055;41.884;12.534;2022-07-30T15:50:43;33.30;77.20
33414;DHT22;60055;41.884;12.534;2022-07-30T15:53:09;33.50;75.80
33414;DHT22;60055;41.884;12.534;2022-07-30T15:55:36;33.30;74.80
33414;DHT22;60055;41.884;12.534;2022-07-30T15:58:02;33.20;75.50
33414;DHT22;60055;41.884;12.534;2022-07-30T16:00:28;33.00;76.50
33414;DHT22;60055;41.884;12.534;2022-07-30T16:02:54;32.80;76.50